sensor_id;sensor_type;location;lat;lon;timestamp;pressure;altitude;pressure_sealevel;temperature;humidity
79686;BME280;69153;47.918;11.428;2024-02-26T00:02:20;93411.50;;;4.68;54.81
79686;BME280;69153;47.918;11.428;2024-02-26T00:04:45;93410.88;;;4.77;54.77
79686;BME280;69153;47.918;11.428;2024-02-26T00:07:11;93408.66;;;4.76;54.78
79686;BME280;69153;47.918;11.428;2024-02-26T00:09:36;93412.03;;;4.63;55.32
79686;BME280;69153;47.918;11.428;2024-02-26T00:12:03;93411.81;;;4.71;55.02
79686;BME280;69153;47.918;11.428;2024-02-26T00:14:30;93406.78;;;4.63;55.25
79686;BME280;69153;47.918;11.428;2024-02-26T00:16:55;93415.81;;;4.50;55.55
79686;BME280;69153;47.918;11.428;2024-02-26T00:19:21;93406.91;;;4.47;55.26
79686;BME280;69153;47.918;11.428;2024-02-26T00:21:46;93409.63;;;4.44;55.69
79686;BME280;69153;47.918;11.428;2024-02-26T00:24:12;93408.47;;;4.45;55.32
79686;BME280;69153;47.918;11.428;2024-02-26T00:26:38;93402.16;;;4.55;54.82
79686;BME280;69153;47.918;11.428;2024-02-26T00:29:03;93393.59;;;4.54;54.61
79686;BME280;69153;47.918;11.428;2024-02-26T00:31:29;93401.66;;;4.47;54.37
79686;BME280;69153;47.918;11.428;2024-02-26T00:33:55;93402.06;;;4.46;54.40
79686;BME280;69153;47.918;11.428;2024-02-26T00:36:20;93400.72;;;4.54;54.16
79686;BME280;69153;47.918;11.428;2024-02-26T00:38:46;93397.78;;;4.52;53.76
79686;BME280;69153;47.918;11.428;2024-02-26T00:41:19;93400.50;;;4.48;53.91
79686;BME280;69153;47.918;11.428;2024-02-26T00:43:45;93401.66;;;4.35;54.21
79686;BME280;69153;47.918;11.428;2024-02-26T00:46:10;93396.63;;;4.27;54.58
79686;BME280;69153;47.918;11.428;2024-02-26T00:48:36;93394.94;;;4.21;54.68
79686;BME280;69153;47.918;11.428;2024-02-26T00:51:02;93397.88;;;4.23;55.26
79686;BME280;69153;47.918;11.428;2024-02-26T00:53:31;93403.13;;;4.23;55.15
79686;BME280;69153;47.918;11.428;2024-02-26T00:55:56;93397.03;;;4.26;54.72
79686;BME280;69153;47.918;11.428;2024-02-26T00:58:24;93419.47;;;4.14;55.18
79686;BME280;69153;47.918;11.428;2024-02-26T01:00:50;93410.88;;;4.14;54.84
79686;BME280;69153;47.918;11.428;2024-02-26T01:03:15;93409.09;;;4.23;54.77
79686;BME280;69153;47.918;11.428;2024-02-26T01:05:40;93400.59;;;4.19;54.83
79686;BME280;69153;47.918;11.428;2024-02-26T01:08:06;93399.84;;;4.19;54.74
79686;BME280;69153;47.918;11.428;2024-02-26T01:10:31;93395.03;;;4.17;55.03
79686;BME280;69153;47.918;11.428;2024-02-26T01:12:57;93389.59;;;4.12;55.09
79686;BME280;69153;47.918;11.428;2024-02-26T01:15:22;93391.66;;;4.04;55.19
79686;BME280;69153;47.918;11.428;2024-02-26T01:17:49;93390.19;;;4.03;55.62
79686;BME280;69153;47.918;11.428;2024-02-26T01:20:16;93390.41;;;4.09;54.82
79686;BME280;69153;47.918;11.428;2024-02-26T01:22:42;93391.06;;;4.13;55.05
79686;BME280;69153;47.918;11.428;2024-02-26T01:25:08;93390.31;;;4.12;54.94
79686;BME280;69153;47.918;11.428;2024-02-26T01:27:35;93390.94;;;4.04;54.98
79686;BME280;69153;47.918;11.428;2024-02-26T01:30:04;93387.69;;;4.00;55.30
79686;BME280;69153;47.918;11.428;2024-02-26T01:32:30;93388.75;;;4.02;55.27
79686;BME280;69153;47.918;11.428;2024-02-26T01:34:56;93385.28;;;4.05;55.39
79686;BME280;69153;47.918;11.428;2024-02-26T01:37:21;93394.50;;;4.10;55.19
79686;BME280;69153;47.918;11.428;2024-02-26T01:39:47;93391.91;;;4.10;55.23
79686;BME280;69153;47.918;11.428;2024-02-26T01:42:12;93396.31;;;4.13;55.17
79686;BME280;69153;47.918;11.428;2024-02-26T01:44:38;93401.13;;;4.14;54.63
79686;BME280;69153;47.918;11.428;2024-02-26T01:47:05;93398.06;;;4.03;54.56
79686;BME280;69153;47.918;11.428;2024-02-26T01:49:34;93391.97;;;4.06;54.52
79686;BME280;69153;47.918;11.428;2024-02-26T01:52:02;93383.81;;;4.04;54.68
79686;BME280;69153;47.918;11.428;2024-02-26T01:54:29;93375.44;;;3.97;54.34
79686;BME280;69153;47.918;11.428;2024-02-26T01:56:57;93376.16;;;3.97;54.10
79686;BME280;69153;47.918;11.428;2024-02-26T01:59:23;93384.44;;;3.95;54.48
79686;BME280;69153;47.918;11.428;2024-02-26T02:01:55;93378.97;;;3.90;54.30
79686;BME280;69153;47.918;11.428;2024-02-26T02:04:23;93376.88;;;3.85;54.81
79686;BME280;69153;47.918;11.428;2024-02-26T02:06:48;93373.84;;;3.86;55.01
79686;BME280;69153;47.918;11.428;2024-02-26T02:09:15;93367.78;;;3.89;54.41
79686;BME280;69153;47.918;11.428;2024-02-26T02:11:41;93362.63;;;3.73;54.56
79686;BME280;69153;47.918;11.428;2024-02-26T02:14:06;93364.50;;;3.73;54.22
79686;BME280;69153;47.918;11.428;2024-02-26T02:16:32;93360.72;;;3.74;54.39
79686;BME280;69153;47.918;11.428;2024-02-26T02:18:58;93365.31;;;3.70;54.48
79686;BME280;69153;47.918;11.428;2024-02-26T02:21:23;93366.97;;;3.64;54.52
79686;BME280;69153;47.918;11.428;2024-02-26T02:23:49;93368.03;;;3.66;55.20
79686;BME280;69153;47.918;11.428;2024-02-26T02:26:15;93362.91;;;3.63;54.99
79686;BME280;69153;47.918;11.428;2024-02-26T02:28:41;93364.91;;;3.71;54.63
79686;BME280;69153;47.918;11.428;2024-02-26T02:31:07;93366.25;;;3.63;54.95
79686;BME280;69153;47.918;11.428;2024-02-26T02:33:34;93364.88;;;3.58;54.92
79686;BME280;69153;47.918;11.428;2024-02-26T02:36:00;93368.97;;;3.59;55.41
79686;BME280;69153;47.918;11.428;2024-02-26T02:38:25;93368.94;;;3.47;55.43
79686;BME280;69153;47.918;11.428;2024-02-26T02:40:54;93361.00;;;3.50;55.81
79686;BME280;69153;47.918;11.428;2024-02-26T02:43:19;93370.53;;;3.57;55.74
79686;BME280;69153;47.918;11.428;2024-02-26T02:45:45;93365.22;;;3.61;55.97
79686;BME280;69153;47.918;11.428;2024-02-26T02:48:13;93364.88;;;3.58;56.31
79686;BME280;69153;47.918;11.428;2024-02-26T02:50:38;93361.22;;;3.56;56.47
79686;BME280;69153;47.918;11.428;2024-02-26T02:53:04;93359.56;;;3.62;56.39
79686;BME280;69153;47.918;11.428;2024-02-26T02:55:30;93351.69;;;3.49;56.73
79686;BME280;69153;47.918;11.428;2024-02-26T02:57:55;93359.31;;;3.56;56.77
79686;BME280;69153;47.918;11.428;2024-02-26T03:00:21;93356.09;;;3.65;56.45
79686;BME280;69153;47.918;11.428;2024-02-26T03:02:48;93352.03;;;3.77;56.12
79686;BME280;69153;47.918;11.428;2024-02-26T03:05:14;93355.38;;;3.77;55.86
79686;BME280;69153;47.918;11.428;2024-02-26T03:07:39;93352.88;;;3.74;55.78
79686;BME280;69153;47.918;11.428;2024-02-26T03:10:05;93348.38;;;3.74;55.92
79686;BME280;69153;47.918;11.428;2024-02-26T03:12:30;93348.06;;;3.72;55.91
79686;BME280;69153;47.918;11.428;2024-02-26T03:14:56;93349.00;;;3.78;55.58
79686;BME280;69153;47.918;11.428;2024-02-26T03:17:22;93353.72;;;3.83;55.40
79686;BME280;69153;47.918;11.428;2024-02-26T03:19:50;93350.28;;;3.86;55.06
79686;BME280;69153;47.918;11.428;2024-02-26T03:22:19;93352.66;;;3.81;54.92
79686;BME280;69153;47.918;11.428;2024-02-26T03:24:45;93356.34;;;3.83;55.62
79686;BME280;69153;47.918;11.428;2024-02-26T03:27:10;93362.31;;;3.84;55.17
79686;BME280;69153;47.918;11.428;2024-02-26T03:29:37;93364.28;;;3.80;55.33
79686;BME280;69153;47.918;11.428;2024-02-26T03:32:03;93359.47;;;3.78;54.93
79686;BME280;69153;47.918;11.428;2024-02-26T03:34:28;93348.69;;;3.76;54.90
79686;BME280;69153;47.918;11.428;2024-02-26T03:36:55;93351.72;;;3.75;55.43
79686;BME280;69153;47.918;11.428;2024-02-26T03:39:21;93348.47;;;3.71;55.69
79686;BME280;69153;47.918;11.428;2024-02-26T03:41:48;93348.03;;;3.59;55.71
79686;BME280;69153;47.918;11.428;2024-02-26T03:44:14;93358.09;;;3.61;55.66
79686;BME280;69153;47.918;11.428;2024-02-26T03:46:40;93344.22;;;3.48;56.19
79686;BME280;69153;47.918;11.428;2024-02-26T03:49:08;93354.50;;;3.55;56.10
79686;BME280;69153;47.918;11.428;2024-02-26T03:51:33;93347.38;;;3.55;55.51
79686;BME280;69153;47.918;11.428;2024-02-26T03:53:59;93356.28;;;3.58;55.35
79686;BME280;69153;47.918;11.428;2024-02-26T03:56:25;93347.59;;;3.48;55.85
79686;BME280;69153;47.918;11.428;2024-02-26T03:58:51;93350.94;;;3.49;56.18
79686;BME280;69153;47.918;11.428;2024-02-26T04:01:16;93351.03;;;3.45;56.03
79686;BME280;69153;47.918;11.428;2024-02-26T04:03:42;93343.06;;;3.36;56.19
79686;BME280;69153;47.918;11.428;2024-02-26T04:06:11;93347.75;;;3.41;55.59
79686;BME280;69153;47.918;11.428;2024-02-26T04:08:39;93342.94;;;3.40;55.91
79686;BME280;69153;47.918;11.428;2024-02-26T04:11:05;93345.06;;;3.45;55.53
79686;BME280;69153;47.918;11.428;2024-02-26T04:13:35;93341.78;;;3.41;55.68
79686;BME280;69153;47.918;11.428;2024-02-26T04:16:00;93343.06;;;3.36;55.45
79686;BME280;69153;47.918;11.428;2024-02-26T04:18:29;93344.28;;;3.32;55.15
79686;BME280;69153;47.918;11.428;2024-02-26T04:20:54;93339.69;;;3.36;55.47
79686;BME280;69153;47.918;11.428;2024-02-26T04:23:20;93348.91;;;3.40;55.24
79686;BME280;69153;47.918;11.428;2024-02-26T04:25:45;93345.56;;;3.40;55.00
79686;BME280;69153;47.918;11.428;2024-02-26T04:28:11;93347.16;;;3.37;55.16
79686;BME280;69153;47.918;11.428;2024-02-26T04:30:37;93344.81;;;3.39;55.19
79686;BME280;69153;47.918;11.428;2024-02-26T04:33:03;93342.72;;;3.34;55.10
79686;BME280;69153;47.918;11.428;2024-02-26T04:35:29;93349.53;;;3.32;55.49
79686;BME280;69153;47.918;11.428;2024-02-26T04:37:54;93346.25;;;3.28;55.27
79686;BME280;69153;47.918;11.428;2024-02-26T04:40:20;93354.97;;;3.25;55.71
79686;BME280;69153;47.918;11.428;2024-02-26T04:42:45;93353.78;;;3.26;55.45
79686;BME280;69153;47.918;11.428;2024-02-26T04:45:11;93347.63;;;3.32;54.67
79686;BME280;69153;47.918;11.428;2024-02-26T04:47:36;93352.78;;;3.36;55.08
79686;BME280;69153;47.918;11.428;2024-02-26T04:50:02;93341.59;;;3.35;54.93
79686;BME280;69153;47.918;11.428;2024-02-26T04:52:27;93340.00;;;3.38;54.40
79686;BME280;69153;47.918;11.428;2024-02-26T04:54:53;93344.53;;;3.37;54.87
79686;BME280;69153;47.918;11.428;2024-02-26T04:57:18;93341.06;;;3.40;55.23
79686;BME280;69153;47.918;11.428;2024-02-26T04:59:44;93341.16;;;3.37;55.46
79686;BME280;69153;47.918;11.428;2024-02-26T05:02:11;93347.75;;;3.41;55.25
79686;BME280;69153;47.918;11.428;2024-02-26T05:04:37;93339.28;;;3.37;54.95
79686;BME280;69153;47.918;11.428;2024-02-26T05:07:03;93344.00;;;3.42;54.96
79686;BME280;69153;47.918;11.428;2024-02-26T05:09:29;93351.34;;;3.47;55.20
79686;BME280;69153;47.918;11.428;2024-02-26T05:11:54;93350.19;;;3.48;54.98
79686;BME280;69153;47.918;11.428;2024-02-26T05:14:19;93347.03;;;3.41;55.05
79686;BME280;69153;47.918;11.428;2024-02-26T05:16:45;93351.44;;;3.44;55.30
79686;BME280;69153;47.918;11.428;2024-02-26T05:19:11;93355.13;;;3.46;55.32
79686;BME280;69153;47.918;11.428;2024-02-26T05:21:36;93356.78;;;3.53;55.05
79686;BME280;69153;47.918;11.428;2024-02-26T05:24:02;93355.75;;;3.50;55.31
79686;BME280;69153;47.918;11.428;2024-02-26T05:26:27;93360.03;;;3.44;55.13
79686;BME280;69153;47.918;11.428;2024-02-26T05:28:52;93352.91;;;3.45;55.19
79686;BME280;69153;47.918;11.428;2024-02-26T05:31:18;93366.09;;;3.41;55.74
79686;BME280;69153;47.918;11.428;2024-02-26T05:33:44;93371.88;;;3.49;55.62
79686;BME280;69153;47.918;11.428;2024-02-26T05:36:10;93366.03;;;3.57;55.52
79686;BME280;69153;47.918;11.428;2024-02-26T05:38:35;93366.34;;;3.59;55.79
79686;BME280;69153;47.918;11.428;2024-02-26T05:41:01;93362.72;;;3.70;54.98
79686;BME280;69153;47.918;11.428;2024-02-26T05:43:27;93365.97;;;3.74;55.09
79686;BME280;69153;47.918;11.428;2024-02-26T05:45:52;93369.72;;;3.73;55.30
79686;BME280;69153;47.918;11.428;2024-02-26T05:48:19;93366.38;;;3.72;55.38
79686;BME280;69153;47.918;11.428;2024-02-26T05:50:45;93370.47;;;3.73;55.38
79686;BME280;69153;47.918;11.428;2024-02-26T05:53:11;93373.28;;;3.79;55.35
79686;BME280;69153;47.918;11.428;2024-02-26T05:55:36;93383.06;;;3.91;55.18
79686;BME280;69153;47.918;11.428;2024-02-26T05:58:02;93382.63;;;3.92;54.83
79686;BME280;69153;47.918;11.428;2024-02-26T06:00:28;93380.56;;;4.00;54.92
79686;BME280;69153;47.918;11.428;2024-02-26T06:02:53;93382.66;;;4.05;54.72
79686;BME280;69153;47.918;11.428;2024-02-26T06:05:19;93382.56;;;4.09;55.18
79686;BME280;69153;47.918;11.428;2024-02-26T06:07:44;93391.22;;;3.93;55.61
79686;BME280;69153;47.918;11.428;2024-02-26T06:10:10;93396.28;;;3.87;55.96
79686;BME280;69153;47.918;11.428;2024-02-26T06:12:36;93391.03;;;3.87;55.89
79686;BME280;69153;47.918;11.428;2024-02-26T06:15:02;93398.78;;;3.91;56.24
79686;BME280;69153;47.918;11.428;2024-02-26T06:17:28;93396.72;;;4.11;55.56
79686;BME280;69153;47.918;11.428;2024-02-26T06:19:53;93394.63;;;4.31;55.52
79686;BME280;69153;47.918;11.428;2024-02-26T06:22:19;93398.38;;;4.43;55.34
79686;BME280;69153;47.918;11.428;2024-02-26T06:24:44;93406.06;;;4.50;54.78
79686;BME280;69153;47.918;11.428;2024-02-26T06:27:10;93411.94;;;4.54;54.62
79686;BME280;69153;47.918;11.428;2024-02-26T06:29:35;93417.06;;;4.58;54.42
79686;BME280;69153;47.918;11.428;2024-02-26T06:32:01;93428.19;;;4.75;54.26
79686;BME280;69153;47.918;11.428;2024-02-26T06:34:26;93424.72;;;4.78;53.69
79686;BME280;69153;47.918;11.428;2024-02-26T06:36:51;93432.38;;;4.72;54.08
79686;BME280;69153;47.918;11.428;2024-02-26T06:39:17;93430.16;;;4.71;54.75
79686;BME280;69153;47.918;11.428;2024-02-26T06:41:43;93426.38;;;4.84;54.50
79686;BME280;69153;47.918;11.428;2024-02-26T06:44:08;93427.03;;;4.76;54.98
79686;BME280;69153;47.918;11.428;2024-02-26T06:46:34;93441.28;;;4.75;54.55
79686;BME280;69153;47.918;11.428;2024-02-26T06:49:00;93445.56;;;4.81;54.90
79686;BME280;69153;47.918;11.428;2024-02-26T06:51:25;93448.00;;;4.88;54.62
79686;BME280;69153;47.918;11.428;2024-02-26T06:53:50;93456.59;;;4.89;54.39
79686;BME280;69153;47.918;11.428;2024-02-26T06:56:16;93449.03;;;5.03;54.66
79686;BME280;69153;47.918;11.428;2024-02-26T06:58:42;93443.03;;;5.16;54.22
79686;BME280;69153;47.918;11.428;2024-02-26T07:01:07;93443.13;;;5.12;54.53
79686;BME280;69153;47.918;11.428;2024-02-26T07:03:35;93444.81;;;5.19;54.48
79686;BME280;69153;47.918;11.428;2024-02-26T07:06:02;93443.72;;;5.29;54.11
79686;BME280;69153;47.918;11.428;2024-02-26T07:08:27;93440.16;;;5.23;54.81
79686;BME280;69153;47.918;11.428;2024-02-26T07:10:53;93442.38;;;5.24;54.94
79686;BME280;69153;47.918;11.428;2024-02-26T07:13:18;93441.53;;;5.27;54.93
79686;BME280;69153;47.918;11.428;2024-02-26T07:15:44;93445.59;;;5.41;54.81
79686;BME280;69153;47.918;11.428;2024-02-26T07:18:09;93449.84;;;5.48;54.73
79686;BME280;69153;47.918;11.428;2024-02-26T07:20:35;93449.28;;;5.65;54.62
79686;BME280;69153;47.918;11.428;2024-02-26T07:23:01;93450.00;;;5.88;53.84
79686;BME280;69153;47.918;11.428;2024-02-26T07:25:26;93454.81;;;6.02;53.88
79686;BME280;69153;47.918;11.428;2024-02-26T07:27:52;93451.25;;;6.18;53.15
79686;BME280;69153;47.918;11.428;2024-02-26T07:30:17;93442.50;;;6.21;52.70
79686;BME280;69153;47.918;11.428;2024-02-26T07:32:43;93449.28;;;6.31;52.75
79686;BME280;69153;47.918;11.428;2024-02-26T07:35:09;93452.03;;;6.27;53.04
79686;BME280;69153;47.918;11.428;2024-02-26T07:37:35;93459.03;;;6.21;53.23
79686;BME280;69153;47.918;11.428;2024-02-26T07:40:00;93460.41;;;6.35;52.86
79686;BME280;69153;47.918;11.428;2024-02-26T07:42:26;93470.19;;;6.34;52.96
79686;BME280;69153;47.918;11.428;2024-02-26T07:44:51;93476.66;;;6.42;52.42
79686;BME280;69153;47.918;11.428;2024-02-26T07:47:18;93478.84;;;6.44;52.97
79686;BME280;69153;47.918;11.428;2024-02-26T07:49:43;93480.94;;;6.49;53.28
79686;BME280;69153;47.918;11.428;2024-02-26T07:52:09;93475.09;;;6.54;53.12
79686;BME280;69153;47.918;11.428;2024-02-26T07:54:34;93475.88;;;6.64;53.29
79686;BME280;69153;47.918;11.428;2024-02-26T07:57:00;93473.59;;;6.75;53.48
79686;BME280;69153;47.918;11.428;2024-02-26T07:59:26;93473.44;;;6.78;53.69
79686;BME280;69153;47.918;11.428;2024-02-26T08:01:52;93474.47;;;6.81;53.62
79686;BME280;69153;47.918;11.428;2024-02-26T08:04:17;93474.66;;;6.87;53.15
79686;BME280;69153;47.918;11.428;2024-02-26T08:06:43;93469.28;;;6.99;52.51
79686;BME280;69153;47.918;11.428;2024-02-26T08:09:09;93469.47;;;7.14;51.47
79686;BME280;69153;47.918;11.428;2024-02-26T08:11:34;93470.53;;;7.26;50.79
79686;BME280;69153;47.918;11.428;2024-02-26T08:14:00;93472.00;;;7.45;51.13
79686;BME280;69153;47.918;11.428;2024-02-26T08:16:25;93475.09;;;7.62;51.77
79686;BME280;69153;47.918;11.428;2024-02-26T08:18:51;93473.19;;;7.62;51.97
79686;BME280;69153;47.918;11.428;2024-02-26T08:21:16;93476.88;;;7.65;51.65
79686;BME280;69153;47.918;11.428;2024-02-26T08:23:43;93470.56;;;7.71;52.31
79686;BME280;69153;47.918;11.428;2024-02-26T08:26:09;93468.94;;;7.83;52.32
79686;BME280;69153;47.918;11.428;2024-02-26T08:28:37;93464.09;;;8.00;53.06
79686;BME280;69153;47.918;11.428;2024-02-26T08:31:02;93467.59;;;8.06;52.73
79686;BME280;69153;47.918;11.428;2024-02-26T08:33:28;93467.91;;;8.17;52.83
79686;BME280;69153;47.918;11.428;2024-02-26T08:35:54;93467.00;;;8.29;53.10
79686;BME280;69153;47.918;11.428;2024-02-26T08:38:19;93467.16;;;8.35;52.00
79686;BME280;69153;47.918;11.428;2024-02-26T08:40:45;93461.28;;;8.40;52.40
79686;BME280;69153;47.918;11.428;2024-02-26T08:43:10;93465.22;;;8.44;52.68
79686;BME280;69153;47.918;11.428;2024-02-26T08:45:35;93469.59;;;8.47;52.39
79686;BME280;69153;47.918;11.428;2024-02-26T08:48:01;93469.31;;;8.54;52.71
79686;BME280;69153;47.918;11.428;2024-02-26T08:50:27;93472.88;;;8.42;53.45
79686;BME280;69153;47.918;11.428;2024-02-26T08:52:53;93475.22;;;8.40;53.93
79686;BME280;69153;47.918;11.428;2024-02-26T08:55:19;93479.88;;;8.54;53.26
79686;BME280;69153;47.918;11.428;2024-02-26T08:57:44;93480.53;;;8.73;53.23
79686;BME280;69153;47.918;11.428;2024-02-26T09:00:10;93475.50;;;8.84;52.54
79686;BME280;69153;47.918;11.428;2024-02-26T09:02:36;93471.66;;;8.94;52.71
79686;BME280;69153;47.918;11.428;2024-02-26T09:05:05;93467.06;;;9.04;52.56
79686;BME280;69153;47.918;11.428;2024-02-26T09:07:31;93468.63;;;9.11;52.23
79686;BME280;69153;47.918;11.428;2024-02-26T09:09:56;93471.41;;;9.16;52.79
79686;BME280;69153;47.918;11.428;2024-02-26T09:12:22;93461.41;;;9.20;53.02
79686;BME280;69153;47.918;11.428;2024-02-26T09:14:48;93459.28;;;9.34;53.13
79686;BME280;69153;47.918;11.428;2024-02-26T09:17:13;93460.56;;;9.38;53.17
79686;BME280;69153;47.918;11.428;2024-02-26T09:19:39;93450.31;;;9.55;53.05
79686;BME280;69153;47.918;11.428;2024-02-26T09:22:04;93453.09;;;9.75;53.02
79686;BME280;69153;47.918;11.428;2024-02-26T09:24:30;93459.72;;;9.94;52.29
79686;BME280;69153;47.918;11.428;2024-02-26T09:26:55;93462.00;;;10.16;51.76
79686;BME280;69153;47.918;11.428;2024-02-26T09:29:21;93462.94;;;10.72;48.51
79686;BME280;69153;47.918;11.428;2024-02-26T09:31:46;93471.16;;;11.79;46.62
79686;BME280;69153;47.918;11.428;2024-02-26T09:34:14;93459.94;;;12.73;45.04
79686;BME280;69153;47.918;11.428;2024-02-26T09:36:40;93454.25;;;13.17;42.61
79686;BME280;69153;47.918;11.428;2024-02-26T09:39:05;93463.91;;;13.68;41.57
79686;BME280;69153;47.918;11.428;2024-02-26T09:41:34;93458.06;;;13.10;40.04
79686;BME280;69153;47.918;11.428;2024-02-26T09:44:02;93445.56;;;12.85;40.38
79686;BME280;69153;47.918;11.428;2024-02-26T09:46:30;93440.53;;;12.61;40.68
79686;BME280;69153;47.918;11.428;2024-02-26T09:48:56;93435.97;;;12.10;41.78
79686;BME280;69153;47.918;11.428;2024-02-26T09:51:23;93421.03;;;11.87;42.59
79686;BME280;69153;47.918;11.428;2024-02-26T09:53:52;93419.59;;;11.65;42.86
79686;BME280;69153;47.918;11.428;2024-02-26T09:56:18;93417.13;;;11.62;43.61
79686;BME280;69153;47.918;11.428;2024-02-26T09:58:45;93419.53;;;11.60;44.56
79686;BME280;69153;47.918;11.428;2024-02-26T10:01:17;93424.16;;;11.65;44.59
79686;BME280;69153;47.918;11.428;2024-02-26T10:03:44;93420.72;;;11.79;44.48
79686;BME280;69153;47.918;11.428;2024-02-26T10:06:13;93423.91;;;12.09;43.99
79686;BME280;69153;47.918;11.428;2024-02-26T10:08:40;93434.59;;;12.14;42.79
79686;BME280;69153;47.918;11.428;2024-02-26T10:11:07;93434.53;;;12.35;42.32
79686;BME280;69153;47.918;11.428;2024-02-26T10:13:34;93436.22;;;12.64;41.25
79686;BME280;69153;47.918;11.428;2024-02-26T10:16:00;93433.63;;;13.12;39.99
79686;BME280;69153;47.918;11.428;2024-02-26T10:18:45;93435.25;;;14.00;37.57
79686;BME280;69153;47.918;11.428;2024-02-26T10:21:10;93436.06;;;14.40;36.47
79686;BME280;69153;47.918;11.428;2024-02-26T10:23:36;93444.03;;;14.45;36.10
79686;BME280;69153;47.918;11.428;2024-02-26T10:26:02;93438.00;;;14.61;34.84
79686;BME280;69153;47.918;11.428;2024-02-26T10:28:29;93437.50;;;14.91;33.97
79686;BME280;69153;47.918;11.428;2024-02-26T10:30:55;93437.25;;;15.06;34.17
79686;BME280;69153;47.918;11.428;2024-02-26T10:33:20;93437.22;;;15.11;34.17
79686;BME280;69153;47.918;11.428;2024-02-26T10:35:46;93430.91;;;15.20;33.74
79686;BME280;69153;47.918;11.428;2024-02-26T10:38:12;93430.16;;;15.25;33.75
79686;BME280;69153;47.918;11.428;2024-02-26T10:40:38;93437.59;;;15.60;33.18
79686;BME280;69153;47.918;11.428;2024-02-26T10:43:03;93431.34;;;16.04;32.88
79686;BME280;69153;47.918;11.428;2024-02-26T10:45:31;93439.28;;;16.15;31.21
79686;BME280;69153;47.918;11.428;2024-02-26T10:47:57;93432.59;;;15.97;31.71
79686;BME280;69153;47.918;11.428;2024-02-26T10:50:22;93436.84;;;16.23;32.15
79686;BME280;69153;47.918;11.428;2024-02-26T10:52:48;93446.69;;;16.39;30.04
79686;BME280;69153;47.918;11.428;2024-02-26T10:55:16;93450.47;;;16.55;30.96
79686;BME280;69153;47.918;11.428;2024-02-26T10:57:45;93445.38;;;16.10;31.55
79686;BME280;69153;47.918;11.428;2024-02-26T11:00:15;93448.03;;;16.16;32.66
79686;BME280;69153;47.918;11.428;2024-02-26T11:02:41;93452.06;;;16.33;32.07
79686;BME280;69153;47.918;11.428;2024-02-26T11:05:11;93450.94;;;16.59;30.87
79686;BME280;69153;47.918;11.428;2024-02-26T11:07:37;93445.84;;;17.15;30.68
79686;BME280;69153;47.918;11.428;2024-02-26T11:10:05;93443.66;;;18.05;29.64
79686;BME280;69153;47.918;11.428;2024-02-26T11:12:32;93449.50;;;19.90;27.45
79686;BME280;69153;47.918;11.428;2024-02-26T11:15:00;93455.81;;;21.36;24.89
79686;BME280;69153;47.918;11.428;2024-02-26T11:17:28;93449.06;;;21.79;23.30
79686;BME280;69153;47.918;11.428;2024-02-26T11:19:57;93440.91;;;22.58;23.28
79686;BME280;69153;47.918;11.428;2024-02-26T11:22:24;93434.97;;;23.81;21.74
79686;BME280;69153;47.918;11.428;2024-02-26T11:24:52;93441.63;;;25.01;20.34
79686;BME280;69153;47.918;11.428;2024-02-26T11:27:24;93434.06;;;25.83;19.47
79686;BME280;69153;47.918;11.428;2024-02-26T11:29:52;93424.06;;;26.74;19.04
79686;BME280;69153;47.918;11.428;2024-02-26T11:32:19;93409.38;;;27.23;18.12
79686;BME280;69153;47.918;11.428;2024-02-26T11:34:45;93404.75;;;27.07;18.87
79686;BME280;69153;47.918;11.428;2024-02-26T11:37:13;93410.81;;;26.88;19.21
79686;BME280;69153;47.918;11.428;2024-02-26T11:39:42;93408.16;;;26.97;19.44
79686;BME280;69153;47.918;11.428;2024-02-26T11:42:08;93399.19;;;27.14;18.99
79686;BME280;69153;47.918;11.428;2024-02-26T11:44:35;93400.06;;;26.80;19.50
79686;BME280;69153;47.918;11.428;2024-02-26T11:47:32;93395.56;;;27.02;19.37
79686;BME280;69153;47.918;11.428;2024-02-26T11:50:53;93394.84;;;26.38;18.75
79686;BME280;69153;47.918;11.428;2024-02-26T11:55:44;93390.28;;;25.27;19.46
79686;BME280;69153;47.918;11.428;2024-02-26T11:58:10;93388.44;;;24.80;18.48
79686;BME280;69153;47.918;11.428;2024-02-26T12:00:35;93390.94;;;24.86;19.42
79686;BME280;69153;47.918;11.428;2024-02-26T12:03:01;93397.88;;;24.14;20.08
79686;BME280;69153;47.918;11.428;2024-02-26T12:05:33;93400.25;;;23.25;20.79
79686;BME280;69153;47.918;11.428;2024-02-26T12:08:01;93402.13;;;21.74;22.00
79686;BME280;69153;47.918;11.428;2024-02-26T12:10:33;93407.09;;;20.85;23.03
79686;BME280;69153;47.918;11.428;2024-02-26T12:13:16;93414.56;;;21.49;22.99
79686;BME280;69153;47.918;11.428;2024-02-26T12:15:43;93418.03;;;21.28;22.07
79686;BME280;69153;47.918;11.428;2024-02-26T12:18:15;93421.19;;;21.76;21.82
79686;BME280;69153;47.918;11.428;2024-02-26T12:20:42;93430.84;;;22.66;21.34
79686;BME280;69153;47.918;11.428;2024-02-26T12:23:14;93431.56;;;22.74;20.38
79686;BME280;69153;47.918;11.428;2024-02-26T12:25:40;93428.63;;;21.98;21.51
79686;BME280;69153;47.918;11.428;2024-02-26T12:28:06;93427.91;;;21.26;21.66
79686;BME280;69153;47.918;11.428;2024-02-26T12:30:32;93425.91;;;20.09;22.23
79686;BME280;69153;47.918;11.428;2024-02-26T12:32:59;93430.16;;;19.25;22.86
79686;BME280;69153;47.918;11.428;2024-02-26T12:35:27;93428.97;;;18.12;23.74
79686;BME280;69153;47.918;11.428;2024-02-26T12:37:54;93428.34;;;17.63;23.59
79686;BME280;69153;47.918;11.428;2024-02-26T12:40:20;93437.53;;;18.10;23.95
79686;BME280;69153;47.918;11.428;2024-02-26T12:42:46;93431.53;;;18.55;24.60
79686;BME280;69153;47.918;11.428;2024-02-26T12:45:13;93434.50;;;18.51;24.68
79686;BME280;69153;47.918;11.428;2024-02-26T12:47:43;93432.78;;;18.54;25.62
79686;BME280;69153;47.918;11.428;2024-02-26T12:50:09;93431.94;;;18.27;24.67
79686;BME280;69153;47.918;11.428;2024-02-26T12:52:39;93432.28;;;18.37;25.13
79686;BME280;69153;47.918;11.428;2024-02-26T12:55:06;93441.84;;;17.95;24.96
79686;BME280;69153;47.918;11.428;2024-02-26T12:57:37;93432.38;;;18.12;26.37